Classifiche di sempre
Migliori tempi personali validi di team tra tutti gli eventi e le stagioni. Ogni team compare una sola volta per divisione.
Cerca per nome e apri la pagina in cui è classificato questo record di divisione.
133,012 team in classifica
| Pos. | Pos. AG | Team | Nazionalità | Categoria età | TempoMiglior tempo | Distacco |
|---|---|---|---|---|---|---|
| 8726 | #3617 | Sam Long & Shaunie GibsonGBR · X 30-34 · AG #3617 | GBR | X 30-34 | 1:06:23 | +17:10 |
| 8727 | -- | Colin Quinlan & Beth DixonX XU29 | -- | X XU29 | 1:06:23 | +17:10 |
| 8728 | #3618 | Alice Rettie & Andrew AoukarAUS · X 30-34 · AG #3618 | AUS | X 30-34 | 1:06:23 | +17:10 |
| 8729 | -- | Kyle PATERSON & Lauren ROBISONGBR · X XU29 | GBR | X XU29 | 1:06:23 | +17:10 |
| 8730 | -- | Louis Morris & Kara LawrensonGBR · X XU29 | GBR | X XU29 | 1:06:23 | +17:10 |
| 8731 | #848 | Stephen Fitchett & Siobhan WilsonGBR · X 40-44 · AG #848 | GBR | X 40-44 | 1:06:23 | +17:10 |
| 8732 | #849 | John Henderson & Claudia WilsonGBR · X 40-44 · AG #849 | GBR | X 40-44 | 1:06:23 | +17:10 |
| 8733 | -- | Daniela Finkenzeller & David KrampGER · X XU29 | GER | X XU29 | 1:06:23 | +17:10 |
| 8734 | #3619 | Benjamin Adriani & Shima SalimianGER · X 30-34 · AG #3619 | GER | X 30-34 | 1:06:23 | +17:10 |
| 8735 | #3610 | Marcel Köppler & Alisa SchmittGER · X 30-34 · AG #3610 | GER | X 30-34 | 1:06:23 | +17:10 |
| 8736 | #72 | Myles Mcnulty & Martina GoerzX 50-54 · AG #72 | -- | X 50-54 | 1:06:23 | +17:10 |
| 8737 | #101 | Sarah Pörschmann & Thomas ValtlGER · X 30-39 · AG #101 | GER | X 30-39 | 1:06:23 | +17:10 |
| 8738 | #183 | Brian Rutter & Faye GrouwstraGBR · X 45-49 · AG #183 | GBR | X 45-49 | 1:06:23 | +17:10 |
| 8739 | #1577 | Lance Hermanstein & Kya HammertonGBR · X 25-29 · AG #1577 | GBR | X 25-29 | 1:06:23 | +17:10 |
| 8740 | #1578 | Ethan Le Fevre & Brittany NgX 25-29 · AG #1578 | -- | X 25-29 | 1:06:23 | +17:10 |
| 8741 | #184 | Natalia Maas & Greg NicholsGBR · X 45-49 · AG #184 | GBR | X 45-49 | 1:06:23 | +17:10 |
| 8742 | #1579 | Lea Mehle & Vid MehleSLO · X 25-29 · AG #1579 | SLO | X 25-29 | 1:06:23 | +17:10 |
| 8743 | #1580 | Loreen Kocjan & Yannick SchmitzGER · X 25-29 · AG #1580 | GER | X 25-29 | 1:06:23 | +17:10 |
| 8744 | #850 | Holly Jenkins & Richard PriceGBR · X 40-44 · AG #850 | GBR | X 40-44 | 1:06:23 | +17:10 |
| 8745 | #3620 | Marco Grübl & Salina WiedmannGER · X 30-34 · AG #3620 | GER | X 30-34 | 1:06:24 | +17:11 |
| 8746 | #3621 | Scott Katzenstein & Chevy JohnX 30-34 · AG #3621 | -- | X 30-34 | 1:06:24 | +17:11 |
| 8747 | #3622 | Ben Coull & Zoë Fettig-WinnX 30-34 · AG #3622 | -- | X 30-34 | 1:06:24 | +17:11 |
| 8748 | #3623 | Lotte Prak & Roan BergmanNED · X 30-34 · AG #3623 | NED | X 30-34 | 1:06:24 | +17:11 |
| 8749 | #1581 | Kiera Bishop & Josh BishopGBR · X 25-29 · AG #1581 | GBR | X 25-29 | 1:06:24 | +17:11 |
| 8750 | #3624 | Mathilde Duport Mancini & Alexy GarciaFRA · X 30-34 · AG #3624 | FRA | X 30-34 | 1:06:24 | +17:11 |
Pagina 350 di 5,321